createdAt,value
2023-04-29T00:00:30.185Z,9.12
2023-04-29T00:02:56.993Z,9.16
2023-04-29T00:05:23.942Z,9.12
2023-04-29T00:07:50.928Z,9.12
2023-04-29T00:10:17.437Z,9.11
2023-04-29T00:12:43.953Z,9.09
2023-04-29T00:15:10.932Z,9.10
2023-04-29T00:17:37.816Z,9.05
2023-04-29T00:20:04.912Z,8.99
2023-04-29T00:22:31.445Z,8.99
2023-04-29T00:24:57.967Z,9.00
2023-04-29T00:27:24.461Z,8.99
2023-04-29T00:29:51.042Z,8.99
2023-04-29T00:32:17.699Z,8.97
2023-04-29T00:34:44.327Z,8.93
2023-04-29T00:37:10.784Z,8.90
2023-04-29T00:39:37.285Z,8.90
2023-04-29T00:42:03.977Z,8.88
2023-04-29T00:44:32.619Z,8.86
2023-04-29T00:46:59.300Z,8.85
2023-04-29T00:49:28.368Z,8.85
2023-04-29T00:51:57.551Z,8.83
2023-04-29T00:54:24.233Z,8.80
2023-04-29T00:56:51.181Z,8.80
2023-04-29T00:59:17.983Z,8.76
2023-04-29T01:01:44.747Z,8.72
2023-04-29T01:04:11.600Z,8.69
2023-04-29T01:06:57.145Z,8.68
2023-04-29T01:09:32.707Z,8.68
2023-04-29T01:12:34.335Z,8.68
2023-04-29T01:15:06.290Z,8.69
2023-04-29T01:17:41.890Z,8.66
2023-04-29T01:20:10.360Z,8.70
2023-04-29T01:22:39.217Z,8.67
2023-04-29T01:25:07.011Z,8.69
2023-04-29T01:27:39.587Z,8.68
2023-04-29T01:30:22.875Z,8.68
2023-04-29T01:33:12.493Z,8.65
2023-04-29T01:36:18.981Z,8.67
2023-04-29T01:39:30.213Z,8.64
2023-04-29T01:42:02.398Z,8.63
2023-04-29T01:44:30.032Z,8.61
2023-04-29T01:46:56.837Z,8.63
2023-04-29T01:49:27.494Z,8.62
2023-04-29T01:51:54.380Z,8.59
2023-04-29T01:54:24.117Z,8.56
2023-04-29T01:56:51.888Z,8.55
2023-04-29T01:59:18.402Z,8.52
2023-04-29T02:01:44.909Z,8.51
2023-04-29T02:04:11.518Z,8.53
2023-04-29T02:06:38.498Z,8.56
2023-04-29T02:09:05.311Z,8.56
2023-04-29T02:11:33.447Z,8.56
2023-04-29T02:14:00.148Z,8.52
2023-04-29T02:16:26.877Z,8.53
2023-04-29T02:18:55.080Z,8.54
2023-04-29T02:21:21.820Z,8.53
2023-04-29T02:23:48.612Z,8.51
2023-04-29T02:26:15.384Z,8.51
2023-04-29T02:28:42.383Z,8.53
2023-04-29T02:31:09.106Z,8.51
2023-04-29T02:33:35.844Z,8.53
2023-04-29T02:36:02.543Z,8.51
2023-04-29T02:38:29.288Z,8.52
2023-04-29T02:40:56.039Z,8.50
2023-04-29T02:43:23.108Z,8.53
2023-04-29T02:45:49.821Z,8.50
2023-04-29T02:48:17.002Z,8.52
2023-04-29T02:50:43.641Z,8.53
2023-04-29T02:53:10.435Z,8.51
2023-04-29T02:55:37.439Z,8.54
2023-04-29T02:58:04.189Z,8.55
2023-04-29T03:00:30.912Z,8.54
2023-04-29T03:02:57.847Z,8.52
2023-04-29T03:05:24.645Z,8.50
2023-04-29T03:07:51.928Z,8.49
2023-04-29T03:10:19.109Z,8.49
2023-04-29T03:12:45.811Z,8.46
2023-04-29T03:15:13.613Z,8.47
2023-04-29T03:17:40.417Z,8.47
2023-04-29T03:20:07.991Z,8.49
2023-04-29T03:22:34.917Z,8.49
2023-04-29T03:25:01.721Z,8.45
2023-04-29T03:27:28.882Z,8.46
2023-04-29T03:29:55.707Z,8.47
2023-04-29T03:32:23.623Z,8.50
2023-04-29T03:34:50.450Z,8.49
2023-04-29T03:37:17.199Z,8.48
2023-04-29T03:39:43.850Z,8.45
2023-04-29T03:42:10.616Z,8.46
2023-04-29T03:44:37.091Z,8.44
2023-04-29T03:47:03.662Z,8.45
2023-04-29T03:49:30.164Z,8.45
2023-04-29T03:51:56.995Z,8.46
2023-04-29T03:54:23.664Z,8.43
2023-04-29T03:56:50.137Z,8.45
2023-04-29T03:59:19.451Z,8.45
2023-04-29T04:01:46.039Z,8.43
2023-04-29T04:04:12.628Z,8.41
2023-04-29T04:06:39.214Z,8.34
2023-04-29T04:09:05.711Z,8.32
2023-04-29T04:11:32.182Z,8.30
2023-04-29T04:13:58.722Z,8.26
2023-04-29T04:16:25.248Z,8.24
2023-04-29T04:18:51.761Z,8.20
2023-04-29T04:21:18.218Z,8.16
2023-04-29T04:23:44.917Z,8.16
2023-04-29T04:26:11.427Z,8.14
2023-04-29T04:28:38.093Z,8.13
2023-04-29T04:31:05.539Z,8.10
2023-04-29T04:33:32.208Z,8.07
2023-04-29T04:35:59.900Z,8.06
2023-04-29T04:38:27.721Z,8.08
2023-04-29T04:40:57.084Z,8.08
2023-04-29T04:43:23.732Z,8.07
2023-04-29T04:45:50.416Z,8.08
2023-04-29T04:48:16.917Z,8.05
2023-04-29T04:50:43.419Z,8.01
2023-04-29T04:53:09.930Z,8.01
2023-04-29T04:55:37.060Z,7.98
2023-04-29T04:58:03.617Z,7.99
2023-04-29T05:00:30.107Z,7.97
2023-04-29T05:02:56.741Z,7.95
2023-04-29T05:05:23.317Z,7.90
2023-04-29T05:07:49.813Z,7.87
2023-04-29T05:10:16.298Z,7.82
2023-04-29T05:12:43.096Z,7.81
2023-04-29T05:15:09.895Z,7.79
2023-04-29T05:17:36.465Z,7.77
2023-04-29T05:20:03.491Z,7.76
2023-04-29T05:22:29.996Z,7.72
2023-04-29T05:25:02.613Z,7.72
2023-04-29T05:27:29.572Z,7.72
2023-04-29T05:29:56.063Z,7.66
2023-04-29T05:32:24.394Z,7.71
2023-04-29T05:34:51.908Z,7.69
2023-04-29T05:37:18.418Z,7.69
2023-04-29T05:39:44.890Z,7.75
2023-04-29T05:42:11.647Z,7.83
2023-04-29T05:44:39.610Z,7.90
2023-04-29T05:47:06.356Z,8.02
2023-04-29T05:49:33.277Z,8.09
2023-04-29T05:52:04.035Z,8.15
2023-04-29T05:54:30.936Z,8.15
2023-04-29T05:57:02.236Z,8.23
2023-04-29T05:59:33.581Z,8.30
2023-04-29T06:02:00.321Z,8.37
2023-04-29T06:04:27.861Z,8.43
2023-04-29T06:06:56.889Z,8.50
2023-04-29T06:09:28.409Z,8.58
2023-04-29T06:11:55.097Z,8.62
2023-04-29T06:14:21.645Z,8.65
2023-04-29T06:16:49.077Z,8.75
2023-04-29T06:19:15.642Z,8.77
2023-04-29T06:21:42.326Z,8.74
2023-04-29T06:24:08.829Z,8.77
2023-04-29T06:26:35.431Z,8.77
2023-04-29T06:29:02.558Z,8.77
2023-04-29T06:31:29.159Z,8.76
2023-04-29T06:33:55.768Z,8.74
2023-04-29T06:36:22.227Z,8.74
2023-04-29T06:38:48.705Z,8.75
2023-04-29T06:41:15.184Z,8.80
2023-04-29T06:43:43.242Z,8.84
2023-04-29T06:46:10.590Z,8.87
2023-04-29T06:48:40.083Z,8.98
2023-04-29T06:51:06.982Z,9.09
2023-04-29T06:53:33.468Z,9.22
2023-04-29T06:55:59.949Z,9.33
2023-04-29T06:58:26.429Z,9.45
2023-04-29T07:00:52.986Z,9.58
2023-04-29T07:03:19.780Z,9.69
2023-04-29T07:05:46.438Z,9.83
2023-04-29T07:08:13.941Z,9.89
2023-04-29T07:10:41.647Z,9.87
2023-04-29T07:13:08.328Z,9.84
2023-04-29T07:15:36.327Z,9.83
2023-04-29T07:18:06.742Z,9.86
2023-04-29T07:20:36.322Z,9.85
2023-04-29T07:23:02.846Z,9.88
2023-04-29T07:25:29.598Z,9.89
2023-04-29T07:27:56.915Z,9.92
2023-04-29T07:30:23.524Z,9.99
2023-04-29T07:32:50.117Z,10.00
2023-04-29T07:35:17.134Z,10.06
2023-04-29T07:37:46.380Z,10.14
2023-04-29T07:40:13.230Z,10.19
2023-04-29T07:42:39.713Z,10.31
2023-04-29T07:45:07.436Z,10.36
2023-04-29T07:47:38.123Z,10.34
2023-04-29T07:50:05.306Z,10.25
2023-04-29T07:52:31.784Z,10.23
2023-04-29T07:54:58.337Z,10.33
2023-04-29T07:57:24.813Z,10.35
2023-04-29T07:59:54.565Z,10.45
2023-04-29T08:02:21.613Z,10.42
2023-04-29T08:04:48.937Z,10.47
2023-04-29T08:07:18.186Z,10.57
2023-04-29T08:09:47.347Z,10.73
2023-04-29T08:12:14.040Z,10.80
2023-04-29T08:14:40.776Z,10.93
2023-04-29T08:17:08.265Z,10.91
2023-04-29T08:19:34.996Z,10.94
2023-04-29T08:22:01.914Z,11.08
2023-04-29T08:24:29.564Z,11.36
2023-04-29T08:26:56.608Z,11.65
2023-04-29T08:29:26.540Z,11.96
2023-04-29T08:31:59.295Z,12.39
2023-04-29T08:34:33.446Z,12.63
2023-04-29T08:37:00.062Z,12.89
2023-04-29T08:39:31.045Z,13.25
2023-04-29T08:42:08.300Z,13.28
2023-04-29T08:44:47.230Z,13.13
2023-04-29T08:47:14.696Z,13.31
2023-04-29T08:49:42.299Z,13.59
2023-04-29T08:52:08.806Z,13.61
2023-04-29T08:54:36.161Z,13.69
2023-04-29T08:57:07.027Z,13.83
2023-04-29T08:59:33.717Z,13.92
2023-04-29T09:02:00.617Z,14.06
2023-04-29T09:04:43.812Z,14.25
2023-04-29T09:07:13.266Z,14.50
2023-04-29T09:09:42.593Z,14.68
2023-04-29T09:12:12.057Z,14.81
2023-04-29T09:14:38.580Z,15.02
2023-04-29T09:17:05.138Z,15.28
2023-04-29T09:19:34.498Z,15.61
2023-04-29T09:22:47.005Z,15.95
2023-04-29T09:25:14.221Z,15.96
2023-04-29T09:27:40.821Z,15.64
2023-04-29T09:30:08.117Z,15.60
2023-04-29T09:32:37.569Z,15.59
2023-04-29T09:35:24.031Z,15.64
2023-04-29T09:37:54.025Z,15.56
2023-04-29T09:40:30.747Z,15.72
2023-04-29T09:42:58.280Z,15.74
2023-04-29T09:45:41.996Z,15.73
2023-04-29T09:48:09.860Z,15.97
2023-04-29T09:50:37.861Z,16.11
2023-04-29T09:53:06.519Z,16.28
2023-04-29T09:55:33.252Z,16.38
2023-04-29T09:58:00.684Z,16.41
2023-04-29T10:00:32.324Z,16.53
2023-04-29T10:03:01.310Z,16.70
2023-04-29T10:05:35.238Z,16.73
2023-04-29T10:08:02.015Z,16.88
2023-04-29T10:10:30.552Z,16.87
2023-04-29T10:13:01.129Z,16.87
2023-04-29T10:15:43.876Z,16.68
2023-04-29T10:18:20.592Z,17.02
2023-04-29T10:20:48.632Z,17.11
2023-04-29T10:23:15.913Z,17.03
2023-04-29T10:25:44.575Z,17.14
2023-04-29T10:28:16.830Z,17.13
2023-04-29T10:30:51.986Z,17.27
2023-04-29T10:33:19.248Z,17.63
2023-04-29T10:35:48.269Z,17.61
2023-04-29T10:38:25.759Z,17.39
2023-04-29T10:40:53.768Z,17.46
2023-04-29T10:43:27.296Z,17.60
2023-04-29T10:46:16.102Z,17.85
2023-04-29T10:48:47.183Z,17.93
2023-04-29T10:51:29.521Z,18.10
2023-04-29T10:54:07.925Z,18.18
2023-04-29T10:56:38.595Z,18.02
2023-04-29T10:59:05.735Z,17.80
2023-04-29T11:01:47.248Z,17.76
2023-04-29T11:04:15.101Z,17.73
2023-04-29T11:06:46.047Z,17.64
2023-04-29T11:09:29.139Z,17.96
2023-04-29T11:11:56.308Z,18.31
2023-04-29T11:14:29.125Z,18.31
2023-04-29T11:17:01.958Z,18.45
2023-04-29T11:19:36.579Z,18.44
2023-04-29T11:22:18.641Z,18.41
2023-04-29T11:24:57.730Z,18.39
2023-04-29T11:27:33.245Z,18.38
2023-04-29T11:30:03.034Z,18.40
2023-04-29T11:32:31.846Z,18.41
2023-04-29T11:35:09.729Z,18.27
2023-04-29T11:37:37.017Z,18.39
2023-04-29T11:40:05.089Z,18.36
2023-04-29T11:42:35.378Z,18.42
2023-04-29T11:45:02.464Z,18.24
2023-04-29T11:47:30.474Z,17.75
2023-04-29T11:50:08.613Z,17.24
2023-04-29T11:52:37.107Z,16.85
2023-04-29T11:55:05.324Z,16.45
2023-04-29T11:57:31.964Z,16.26
2023-04-29T11:59:58.942Z,16.11
2023-04-29T12:02:33.076Z,15.92
2023-04-29T12:05:01.540Z,15.85
2023-04-29T12:07:28.680Z,15.95
2023-04-29T12:09:56.685Z,16.00
2023-04-29T12:12:23.454Z,16.21
2023-04-29T12:14:50.386Z,16.43
2023-04-29T12:17:17.539Z,16.25
2023-04-29T12:19:44.287Z,15.95
2023-04-29T12:22:10.730Z,15.66
2023-04-29T12:24:39.146Z,15.35
2023-04-29T12:27:10.040Z,15.39
2023-04-29T12:29:42.747Z,15.42
2023-04-29T12:32:16.621Z,15.73
2023-04-29T12:34:46.811Z,15.87
2023-04-29T12:37:13.451Z,15.73
2023-04-29T12:39:41.163Z,15.52
2023-04-29T12:42:15.453Z,15.18
2023-04-29T12:44:41.953Z,14.93
2023-04-29T12:47:10.297Z,14.81
2023-04-29T12:49:38.010Z,14.90
2023-04-29T12:52:04.755Z,14.94
2023-04-29T12:54:31.536Z,15.08
2023-04-29T12:56:58.099Z,15.06
2023-04-29T12:59:24.602Z,15.04
2023-04-29T13:01:51.160Z,15.02
2023-04-29T13:04:17.859Z,14.99
2023-04-29T13:06:44.449Z,14.93
2023-04-29T13:09:17.457Z,14.94
2023-04-29T13:11:46.636Z,14.90
2023-04-29T13:14:13.122Z,14.88
2023-04-29T13:16:39.731Z,14.73
2023-04-29T13:19:24.658Z,14.55
2023-04-29T13:21:53.509Z,14.49
2023-04-29T13:24:20.851Z,14.38
2023-04-29T13:26:49.114Z,14.32
2023-04-29T13:29:17.451Z,14.23
2023-04-29T13:31:44.164Z,14.11
2023-04-29T13:34:10.732Z,14.07
2023-04-29T13:36:37.262Z,14.05
2023-04-29T13:39:03.851Z,14.10
2023-04-29T13:41:33.610Z,14.10
2023-04-29T13:44:02.174Z,14.10
2023-04-29T13:46:31.447Z,13.99
2023-04-29T13:49:25.337Z,13.95
2023-04-29T13:57:30.194Z,14.02
2023-04-29T13:59:42.751Z,14.10
2023-04-29T14:02:24.411Z,14.18
2023-04-29T14:04:53.134Z,14.22
2023-04-29T14:07:20.374Z,14.26
2023-04-29T14:09:47.056Z,14.29
2023-04-29T14:12:13.728Z,14.29
2023-04-29T14:14:40.400Z,14.30
2023-04-29T14:17:07.170Z,14.07
2023-04-29T14:19:33.827Z,14.02
2023-04-29T14:22:00.599Z,13.94
2023-04-29T14:24:27.292Z,13.95
2023-04-29T14:26:53.974Z,13.96
2023-04-29T14:29:20.844Z,13.97
2023-04-29T14:31:47.687Z,13.99
2023-04-29T14:34:14.420Z,13.98
2023-04-29T14:36:41.088Z,13.88
2023-04-29T14:39:08.332Z,13.79
2023-04-29T14:41:35.036Z,13.78
2023-04-29T14:44:01.690Z,13.75
2023-04-29T14:46:29.445Z,13.67
2023-04-29T14:48:56.273Z,13.63
2023-04-29T14:51:22.789Z,13.63
2023-04-29T14:53:50.103Z,13.56
2023-04-29T14:56:17.882Z,13.49
2023-04-29T14:58:44.473Z,13.45
2023-04-29T15:01:11.530Z,13.37
2023-04-29T15:03:43.655Z,13.38
2023-04-29T15:06:11.687Z,13.35
2023-04-29T15:08:38.421Z,13.33
2023-04-29T15:11:04.972Z,13.23
2023-04-29T15:13:32.159Z,13.23
2023-04-29T15:15:58.810Z,13.22
2023-04-29T15:18:26.295Z,13.27
2023-04-29T15:20:53.635Z,13.28
2023-04-29T15:23:20.341Z,13.25
2023-04-29T15:25:47.431Z,13.13
2023-04-29T15:28:14.015Z,12.95
2023-04-29T15:30:40.813Z,12.97
2023-04-29T15:33:07.560Z,12.96
2023-04-29T15:35:34.607Z,12.98
2023-04-29T15:38:01.402Z,12.90
2023-04-29T15:40:28.448Z,12.94
2023-04-29T15:42:55.142Z,12.87
2023-04-29T15:45:21.847Z,12.83
2023-04-29T15:47:48.537Z,12.73
2023-04-29T15:50:15.462Z,12.73
2023-04-29T15:52:42.127Z,12.72
2023-04-29T15:55:08.851Z,12.76
2023-04-29T15:57:41.080Z,12.82
2023-04-29T16:00:10.363Z,12.91
2023-04-29T16:02:37.032Z,12.94
2023-04-29T16:05:03.860Z,12.87
2023-04-29T16:07:30.692Z,12.90
2023-04-29T16:09:57.315Z,12.85
2023-04-29T16:12:23.990Z,12.72
2023-04-29T16:14:51.177Z,12.56
2023-04-29T16:17:17.884Z,12.52
2023-04-29T16:19:44.657Z,12.45
2023-04-29T16:22:11.390Z,12.51
2023-04-29T16:24:38.009Z,12.67
2023-04-29T16:27:04.541Z,12.60
2023-04-29T16:29:31.525Z,12.48
2023-04-29T16:31:58.131Z,12.35
2023-04-29T16:34:24.805Z,12.23
2023-04-29T16:36:51.966Z,12.22
2023-04-29T16:39:18.625Z,12.30
2023-04-29T16:41:45.394Z,12.32
2023-04-29T16:44:13.510Z,12.39
2023-04-29T16:46:40.446Z,12.32
2023-04-29T16:49:07.881Z,12.37
2023-04-29T16:51:34.797Z,12.42
2023-04-29T16:54:02.217Z,12.25
2023-04-29T16:56:28.907Z,12.16
2023-04-29T16:58:55.502Z,12.18
2023-04-29T17:01:22.180Z,12.15
2023-04-29T17:03:49.161Z,12.11
2023-04-29T17:06:16.100Z,12.03
2023-04-29T17:08:44.405Z,12.02
2023-04-29T17:11:11.056Z,11.94
2023-04-29T17:13:37.564Z,11.91
2023-04-29T17:16:04.823Z,11.81
2023-04-29T17:18:31.450Z,11.58
2023-04-29T17:20:58.179Z,11.41
2023-04-29T17:23:25.030Z,11.36
2023-04-29T17:25:51.698Z,11.22
2023-04-29T17:28:18.405Z,11.02
2023-04-29T17:30:45.016Z,10.94
2023-04-29T17:33:13.402Z,10.88
2023-04-29T17:35:40.937Z,10.84
2023-04-29T17:38:07.878Z,10.68
2023-04-29T17:40:34.652Z,10.67
2023-04-29T17:43:01.179Z,10.61
2023-04-29T17:45:28.180Z,10.51
2023-04-29T17:47:54.758Z,10.49
2023-04-29T17:50:21.326Z,10.46
2023-04-29T17:52:48.308Z,10.46
2023-04-29T17:55:14.857Z,10.39
2023-04-29T17:57:41.869Z,10.40
2023-04-29T18:00:09.312Z,10.34
2023-04-29T18:02:37.102Z,10.26
2023-04-29T18:05:04.218Z,10.22
2023-04-29T18:07:30.892Z,10.16
2023-04-29T18:09:57.924Z,10.06
2023-04-29T18:12:24.847Z,10.06
2023-04-29T18:14:51.993Z,9.93
2023-04-29T18:17:19.173Z,9.90
2023-04-29T18:19:52.074Z,9.89
2023-04-29T18:22:18.909Z,9.82
2023-04-29T18:24:46.642Z,9.73
2023-04-29T18:27:13.153Z,9.68
2023-04-29T18:29:39.827Z,9.64
2023-04-29T18:32:08.008Z,9.54
2023-04-29T18:34:34.795Z,9.50
2023-04-29T18:37:01.603Z,9.46
2023-04-29T18:39:28.160Z,9.40
2023-04-29T18:41:54.666Z,9.33
2023-04-29T18:44:21.349Z,9.32
2023-04-29T18:46:47.838Z,9.22
2023-04-29T18:49:16.840Z,9.18
2023-04-29T18:51:46.972Z,9.12
2023-04-29T18:54:15.916Z,9.11
2023-04-29T18:56:46.475Z,9.05
2023-04-29T18:59:20.514Z,8.98
2023-04-29T19:01:48.566Z,8.90
2023-04-29T19:04:16.243Z,8.85
2023-04-29T19:06:43.322Z,8.76
2023-04-29T19:09:11.099Z,8.76
2023-04-29T19:11:37.598Z,8.66
2023-04-29T19:14:04.251Z,8.65
2023-04-29T19:16:30.859Z,8.58
2023-04-29T19:18:57.444Z,8.51
2023-04-29T19:21:24.038Z,8.39
2023-04-29T19:23:50.800Z,8.32
2023-04-29T19:26:18.167Z,8.27
2023-04-29T19:28:44.753Z,8.25
2023-04-29T19:31:11.925Z,8.22
2023-04-29T19:33:38.571Z,8.15
2023-04-29T19:36:05.184Z,8.07
2023-04-29T19:38:31.770Z,8.01
2023-04-29T19:40:58.514Z,8.03
2023-04-29T19:43:25.300Z,7.94
2023-04-29T19:45:52.136Z,7.93
2023-04-29T19:48:18.855Z,7.89
2023-04-29T19:50:46.121Z,7.87
2023-04-29T19:53:13.006Z,7.83
2023-04-29T19:55:40.015Z,7.76
2023-04-29T19:58:07.722Z,7.76
2023-04-29T20:00:34.569Z,7.73
2023-04-29T20:03:01.482Z,7.59
2023-04-29T20:05:30.113Z,7.62
2023-04-29T20:07:56.651Z,7.58
2023-04-29T20:10:24.093Z,7.55
2023-04-29T20:12:50.724Z,7.50
2023-04-29T20:15:17.438Z,7.39
2023-04-29T20:17:44.224Z,7.32
2023-04-29T20:20:11.409Z,7.35
2023-04-29T20:22:38.928Z,7.30
2023-04-29T20:25:06.210Z,7.26
2023-04-29T20:27:32.956Z,7.22
2023-04-29T20:29:59.523Z,7.15
2023-04-29T20:32:26.291Z,7.14
2023-04-29T20:34:53.839Z,7.11
2023-04-29T20:37:20.330Z,7.08
2023-04-29T20:39:47.380Z,7.05
2023-04-29T20:42:14.211Z,7.01
2023-04-29T20:44:41.004Z,6.98
2023-04-29T20:47:07.646Z,6.90
2023-04-29T20:49:34.183Z,6.90
2023-04-29T20:52:00.934Z,6.86
2023-04-29T20:54:27.518Z,6.80
2023-04-29T20:56:54.105Z,6.77
2023-04-29T20:59:20.618Z,6.81
2023-04-29T21:01:47.292Z,6.75
2023-04-29T21:04:14.311Z,6.71
2023-04-29T21:06:41.328Z,6.67
2023-04-29T21:09:08.928Z,6.58
2023-04-29T21:11:35.411Z,6.54
2023-04-29T21:14:02.030Z,6.43
2023-04-29T21:16:28.550Z,6.41
2023-04-29T21:18:55.211Z,6.38
2023-04-29T21:21:23.156Z,6.31
2023-04-29T21:23:49.701Z,6.22
2023-04-29T21:26:16.226Z,6.11
2023-04-29T21:28:42.705Z,6.08
2023-04-29T21:31:15.241Z,6.11
2023-04-29T21:33:43.406Z,6.06
2023-04-29T21:36:10.121Z,6.03
2023-04-29T21:38:36.604Z,5.98
2023-04-29T21:41:05.626Z,5.94
2023-04-29T21:43:33.269Z,5.85
2023-04-29T21:46:00.570Z,5.82
2023-04-29T21:48:27.457Z,5.78
2023-04-29T21:50:54.080Z,5.70
2023-04-29T21:53:20.772Z,5.70
2023-04-29T21:55:47.785Z,5.68
2023-04-29T21:58:15.911Z,5.62
2023-04-29T22:00:50.979Z,5.57
2023-04-29T22:03:17.946Z,5.49
2023-04-29T22:05:44.771Z,5.45
2023-04-29T22:08:11.436Z,5.40
2023-04-29T22:10:40.017Z,5.38
2023-04-29T22:13:07.534Z,5.34
2023-04-29T22:15:34.236Z,5.31
2023-04-29T22:18:01.012Z,5.28
2023-04-29T22:20:27.794Z,5.18
2023-04-29T22:22:54.723Z,5.15
2023-04-29T22:25:21.829Z,5.12
2023-04-29T22:27:49.863Z,5.05
2023-04-29T22:30:17.663Z,5.01
2023-04-29T22:32:44.455Z,5.03
2023-04-29T22:35:11.204Z,4.99
2023-04-29T22:37:37.876Z,4.96
2023-04-29T22:40:05.040Z,4.89
2023-04-29T22:42:31.800Z,4.87
2023-04-29T22:44:58.501Z,4.81
2023-04-29T22:47:25.178Z,4.78
2023-04-29T22:49:52.202Z,4.71
2023-04-29T22:52:19.136Z,4.69
2023-04-29T22:54:46.164Z,4.65
2023-04-29T22:57:12.825Z,4.55
2023-04-29T22:59:39.488Z,4.44
2023-04-29T23:02:06.188Z,4.32
2023-04-29T23:04:33.305Z,4.22
2023-04-29T23:07:00.027Z,4.09
2023-04-29T23:09:26.845Z,4.03
2023-04-29T23:11:53.497Z,3.98
2023-04-29T23:14:21.187Z,3.93
2023-04-29T23:16:47.858Z,3.92
2023-04-29T23:19:14.501Z,3.91
2023-04-29T23:21:41.213Z,3.89
2023-04-29T23:24:07.875Z,3.86
2023-04-29T23:26:34.555Z,3.81
2023-04-29T23:29:01.362Z,3.78
2023-04-29T23:31:28.125Z,3.71
2023-04-29T23:33:54.868Z,3.69
2023-04-29T23:36:21.529Z,3.64
2023-04-29T23:38:48.231Z,3.58
2023-04-29T23:41:14.896Z,3.52
2023-04-29T23:43:41.644Z,3.44
2023-04-29T23:46:08.470Z,3.41
2023-04-29T23:48:35.232Z,3.32
2023-04-29T23:51:01.917Z,3.31
2023-04-29T23:53:28.585Z,3.27
2023-04-29T23:55:55.246Z,3.24
2023-04-29T23:58:21.948Z,3.19
